createdAt,value
2022-09-28T00:01:51.727Z,20.18
2022-09-28T00:04:18.129Z,20.17
2022-09-28T00:06:44.447Z,20.16
2022-09-28T00:09:10.762Z,20.15
2022-09-28T00:11:37.524Z,20.14
2022-09-28T00:14:03.869Z,20.14
2022-09-28T00:16:31.516Z,20.14
2022-09-28T00:18:57.882Z,20.14
2022-09-28T00:21:26.844Z,20.15
2022-09-28T00:24:12.167Z,20.13
2022-09-28T00:26:45.420Z,20.13
2022-09-28T00:29:18.885Z,20.13
2022-09-28T00:31:45.292Z,20.11
2022-09-28T00:34:11.692Z,20.11
2022-09-28T00:36:38.050Z,20.12
2022-09-28T00:39:07.698Z,20.08
2022-09-28T00:41:34.129Z,20.07
2022-09-28T00:44:19.414Z,20.07
2022-09-28T00:46:45.744Z,20.08
2022-09-28T00:49:13.097Z,20.06
2022-09-28T00:51:39.481Z,20.05
2022-09-28T00:54:05.797Z,20.04
2022-09-28T00:56:32.360Z,20.00
2022-09-28T00:58:59.594Z,20.02
2022-09-28T01:01:26.583Z,20.01
2022-09-28T01:03:54.197Z,20.00
2022-09-28T01:06:21.246Z,19.99
2022-09-28T01:08:50.387Z,19.99
2022-09-28T01:11:17.906Z,20.00
2022-09-28T01:13:44.532Z,20.00
2022-09-28T01:16:24.377Z,19.97
2022-09-28T01:19:13.159Z,19.97
2022-09-28T01:21:45.101Z,19.96
2022-09-28T01:24:14.207Z,19.97
2022-09-28T01:26:47.864Z,19.97
2022-09-28T01:29:33.426Z,19.98
2022-09-28T01:32:10.461Z,19.95
2022-09-28T01:34:37.623Z,19.95
2022-09-28T01:37:04.559Z,19.96
2022-09-28T01:39:32.377Z,19.95
2022-09-28T01:42:00.807Z,19.92
2022-09-28T01:44:27.215Z,19.94
2022-09-28T01:46:53.757Z,19.94
2022-09-28T01:49:21.253Z,19.94
2022-09-28T01:51:52.428Z,19.92
2022-09-28T01:54:20.191Z,19.92
2022-09-28T01:56:50.466Z,19.91
2022-09-28T01:59:20.394Z,19.90
2022-09-28T02:01:46.758Z,19.91
2022-09-28T02:04:16.882Z,19.89
2022-09-28T02:06:48.955Z,19.89
2022-09-28T02:09:20.058Z,19.87
2022-09-28T02:11:47.990Z,19.87
2022-09-28T02:14:14.537Z,19.86
2022-09-28T02:16:42.568Z,19.87
2022-09-28T02:19:11.058Z,19.85
2022-09-28T02:21:39.918Z,19.85
2022-09-28T02:24:23.345Z,19.84
2022-09-28T02:26:50.186Z,19.84
2022-09-28T02:29:16.599Z,19.82
2022-09-28T02:31:43.352Z,19.82
2022-09-28T02:34:09.876Z,19.83
2022-09-28T02:36:36.271Z,19.82
2022-09-28T02:39:02.596Z,19.81
2022-09-28T02:41:32.956Z,19.81
2022-09-28T02:44:03.315Z,19.77
2022-09-28T02:46:30.413Z,19.79
2022-09-28T02:49:24.466Z,19.81
2022-09-28T02:51:59.361Z,19.81
2022-09-28T02:54:54.985Z,19.82
2022-09-28T02:57:26.014Z,19.84
2022-09-28T02:59:52.286Z,19.85
2022-09-28T03:02:29.293Z,19.86
2022-09-28T03:05:01.502Z,19.86
2022-09-28T03:07:32.835Z,19.85
2022-09-28T03:10:13.912Z,19.84
2022-09-28T03:12:40.336Z,19.84
2022-09-28T03:15:11.114Z,19.85
2022-09-28T03:17:37.977Z,19.86
2022-09-28T03:20:04.607Z,19.88
2022-09-28T03:22:30.939Z,19.88
2022-09-28T03:24:57.294Z,19.89
2022-09-28T03:27:23.732Z,19.89
2022-09-28T03:29:50.150Z,19.90
2022-09-28T03:32:16.684Z,19.90
2022-09-28T03:34:43.207Z,19.88
2022-09-28T03:37:12.225Z,19.88
2022-09-28T03:39:39.456Z,19.89
2022-09-28T03:42:05.807Z,19.88
2022-09-28T03:44:34.978Z,19.88
2022-09-28T03:47:01.337Z,19.87
2022-09-28T03:49:27.671Z,19.85
2022-09-28T03:51:53.985Z,19.86
2022-09-28T03:54:20.318Z,19.84
2022-09-28T03:56:46.642Z,19.85
2022-09-28T03:59:13.082Z,19.85
2022-09-28T04:01:39.597Z,19.87
2022-09-28T04:04:06.030Z,19.86
2022-09-28T04:06:32.542Z,19.86
2022-09-28T04:08:59.017Z,19.85
2022-09-28T04:11:25.422Z,19.85
2022-09-28T04:13:51.898Z,19.85
2022-09-28T04:16:18.920Z,19.85
2022-09-28T04:18:55.582Z,19.85
2022-09-28T04:21:45.157Z,19.82
2022-09-28T04:24:14.378Z,19.81
2022-09-28T04:26:40.759Z,19.83
2022-09-28T04:29:15.920Z,19.81
2022-09-28T04:32:02.580Z,19.82
2022-09-28T04:34:37.891Z,19.80
2022-09-28T04:37:06.090Z,19.80
2022-09-28T04:39:32.482Z,19.80
2022-09-28T04:41:58.950Z,19.79
2022-09-28T04:44:26.977Z,19.78
2022-09-28T04:47:02.867Z,19.78
2022-09-28T04:49:31.218Z,19.78
2022-09-28T04:52:08.914Z,19.79
2022-09-28T04:54:35.290Z,19.77
2022-09-28T04:57:03.269Z,19.78
2022-09-28T04:59:29.608Z,19.82
2022-09-28T05:01:56.007Z,19.81
2022-09-28T05:05:00.909Z,19.85
2022-09-28T05:07:45.937Z,19.84
2022-09-28T05:10:12.257Z,19.88
2022-09-28T05:12:39.586Z,19.92
2022-09-28T05:15:06.021Z,19.92
2022-09-28T05:17:32.375Z,19.90
2022-09-28T05:20:17.271Z,19.88
2022-09-28T05:22:43.679Z,19.83
2022-09-28T05:25:10.069Z,19.78
2022-09-28T05:27:55.710Z,19.78
2022-09-28T05:30:34.276Z,19.77
2022-09-28T05:33:36.295Z,19.78
2022-09-28T05:36:10.825Z,19.80
2022-09-28T05:38:37.366Z,19.81
2022-09-28T05:41:06.571Z,19.85
2022-09-28T05:43:33.352Z,19.85
2022-09-28T05:46:00.157Z,19.87
2022-09-28T05:48:27.567Z,19.86
2022-09-28T05:50:54.050Z,19.87
2022-09-28T05:53:20.472Z,19.86
2022-09-28T05:55:46.835Z,19.85
2022-09-28T05:58:13.162Z,19.83
2022-09-28T06:00:39.537Z,19.85
2022-09-28T06:03:09.220Z,19.84
2022-09-28T06:05:36.215Z,19.86
2022-09-28T06:08:04.240Z,19.84
2022-09-28T06:10:31.172Z,19.28
2022-09-28T06:13:00.229Z,18.83
2022-09-28T06:15:27.629Z,18.58
2022-09-28T06:17:58.655Z,18.48
2022-09-28T06:20:37.794Z,18.40
2022-09-28T06:23:14.887Z,18.47
2022-09-28T06:25:41.230Z,18.62
2022-09-28T06:28:09.638Z,18.61
2022-09-28T06:30:38.077Z,18.38
2022-09-28T06:33:08.059Z,18.38
2022-09-28T06:35:35.945Z,18.24
2022-09-28T06:38:02.339Z,18.30
2022-09-28T06:40:29.432Z,18.06
2022-09-28T06:42:56.458Z,17.93
2022-09-28T06:45:42.856Z,17.74
2022-09-28T06:48:33.439Z,17.62
2022-09-28T06:51:00.315Z,17.66
2022-09-28T06:53:33.004Z,17.62
2022-09-28T06:56:10.306Z,17.49
2022-09-28T06:58:36.661Z,17.55
2022-09-28T07:01:03.513Z,17.46
2022-09-28T07:03:40.535Z,17.45
2022-09-28T07:06:23.987Z,17.52
2022-09-28T07:09:27.899Z,17.52
2022-09-28T07:12:10.085Z,17.37
2022-09-28T07:14:49.628Z,17.37
2022-09-28T07:17:16.201Z,17.27
2022-09-28T07:19:44.400Z,17.37
2022-09-28T07:22:18.504Z,17.28
2022-09-28T07:24:45.891Z,17.27
2022-09-28T07:27:31.188Z,17.86
2022-09-28T07:30:16.208Z,18.56
2022-09-28T07:32:57.723Z,18.82
2022-09-28T07:35:50.402Z,18.99
2022-09-28T07:38:16.834Z,19.05
2022-09-28T07:41:01.874Z,19.10
2022-09-28T07:43:28.268Z,19.14
2022-09-28T07:45:54.804Z,19.19
2022-09-28T07:48:21.470Z,19.24
2022-09-28T07:51:08.492Z,19.30
2022-09-28T07:53:40.139Z,19.34
2022-09-28T07:56:30.906Z,19.37
2022-09-28T07:59:03.376Z,19.41
2022-09-28T08:01:38.788Z,19.44
2022-09-28T08:04:06.198Z,19.45
2022-09-28T08:06:34.253Z,19.47
2022-09-28T08:09:02.042Z,19.48
2022-09-28T08:11:49.703Z,19.51
2022-09-28T08:14:39.265Z,19.50
2022-09-28T08:17:26.544Z,19.16
2022-09-28T08:20:14.725Z,19.35
2022-09-28T08:22:41.704Z,19.73
2022-09-28T08:25:08.594Z,19.73
2022-09-28T08:27:34.958Z,19.69
2022-09-28T08:30:01.473Z,19.72
2022-09-28T08:32:51.161Z,19.73
2022-09-28T08:35:35.941Z,19.76
2022-09-28T08:38:13.130Z,19.76
2022-09-28T08:41:36.670Z,19.90
2022-09-28T08:44:24.155Z,19.92
2022-09-28T08:47:46.234Z,20.03
2022-09-28T08:50:24.202Z,20.03
2022-09-28T08:53:05.887Z,19.98
2022-09-28T08:55:49.822Z,19.99
2022-09-28T08:58:30.332Z,19.96
2022-09-28T09:00:58.454Z,19.89
2022-09-28T09:03:29.061Z,19.86
2022-09-28T09:06:19.146Z,19.84
2022-09-28T09:09:07.295Z,19.72
2022-09-28T09:11:34.383Z,19.67
2022-09-28T09:14:00.752Z,19.71
2022-09-28T09:16:44.090Z,19.67
2022-09-28T09:19:54.197Z,19.54
2022-09-28T09:22:59.798Z,19.50
2022-09-28T09:25:38.385Z,19.25
2022-09-28T09:28:11.550Z,19.02
2022-09-28T09:30:50.589Z,19.13
2022-09-28T09:33:27.769Z,19.34
2022-09-28T09:36:34.483Z,19.46
2022-09-28T09:39:35.610Z,19.61
2022-09-28T09:42:29.654Z,19.63
2022-09-28T09:45:35.780Z,19.60
2022-09-28T09:48:27.439Z,19.39
2022-09-28T09:50:55.334Z,19.44
2022-09-28T09:53:21.931Z,19.52
2022-09-28T09:55:50.358Z,19.53
2022-09-28T09:58:26.761Z,19.49
2022-09-28T10:01:08.005Z,19.47
2022-09-28T10:03:53.176Z,19.42
2022-09-28T10:06:22.354Z,19.48
2022-09-28T10:08:49.317Z,19.48
2022-09-28T10:11:18.887Z,19.53
2022-09-28T10:13:50.242Z,19.56
2022-09-28T10:16:37.206Z,19.56
2022-09-28T10:19:09.992Z,19.54
2022-09-28T10:22:03.302Z,19.54
2022-09-28T10:24:31.281Z,19.51
2022-09-28T10:26:59.035Z,19.49
2022-09-28T10:29:25.869Z,19.53
2022-09-28T10:31:52.655Z,19.55
2022-09-28T10:34:35.475Z,19.54
2022-09-28T10:37:09.705Z,19.53
2022-09-28T10:39:53.606Z,19.64
2022-09-28T10:42:21.437Z,19.67
2022-09-28T10:44:55.240Z,19.69
2022-09-28T10:47:32.720Z,19.70
2022-09-28T10:49:59.102Z,19.71
2022-09-28T10:52:43.042Z,19.71
2022-09-28T10:55:20.514Z,19.73
2022-09-28T10:57:47.113Z,19.73
2022-09-28T11:00:31.948Z,19.74
2022-09-28T11:03:22.564Z,19.79
2022-09-28T11:06:01.571Z,19.83
2022-09-28T11:08:48.136Z,19.85
2022-09-28T11:11:19.824Z,19.88
2022-09-28T11:13:51.447Z,19.89
2022-09-28T11:16:23.805Z,19.89
2022-09-28T11:18:50.227Z,19.91
2022-09-28T11:21:17.829Z,19.93
2022-09-28T11:24:01.361Z,19.92
2022-09-28T11:26:34.258Z,19.95
2022-09-28T11:29:00.593Z,19.95
2022-09-28T11:31:39.690Z,19.98
2022-09-28T11:34:27.770Z,20.10
2022-09-28T11:37:32.827Z,20.06
2022-09-28T11:40:17.810Z,20.03
2022-09-28T11:42:44.188Z,20.04
2022-09-28T11:45:18.105Z,20.06
2022-09-28T11:47:53.490Z,20.06
2022-09-28T11:50:38.437Z,20.08
2022-09-28T11:53:23.432Z,20.07
2022-09-28T11:55:57.328Z,20.05
2022-09-28T11:58:31.125Z,20.07
2022-09-28T12:01:04.535Z,20.06
2022-09-28T12:03:51.063Z,20.11
2022-09-28T12:06:23.276Z,20.12
2022-09-28T12:08:53.471Z,20.12
2022-09-28T12:11:43.509Z,20.13
2022-09-28T12:14:20.303Z,20.14
2022-09-28T12:17:05.289Z,20.16
2022-09-28T12:19:34.787Z,20.17
2022-09-28T12:22:03.532Z,20.22
2022-09-28T12:24:49.214Z,20.19
2022-09-28T12:27:27.841Z,20.23
2022-09-28T12:30:12.865Z,20.23
2022-09-28T12:32:41.635Z,20.23
2022-09-28T12:35:15.111Z,20.22
2022-09-28T12:38:01.656Z,20.22
2022-09-28T12:40:38.130Z,20.25
2022-09-28T12:43:23.316Z,20.26
2022-09-28T12:46:11.105Z,20.25
2022-09-28T12:48:52.980Z,20.28
2022-09-28T12:51:42.925Z,20.27
2022-09-28T12:54:17.471Z,20.29
2022-09-28T12:56:52.670Z,20.31
2022-09-28T12:59:29.697Z,20.31
2022-09-28T13:02:01.769Z,20.30
2022-09-28T13:04:36.873Z,20.31
2022-09-28T13:07:06.594Z,20.30
2022-09-28T13:09:47.043Z,20.30
2022-09-28T13:12:24.960Z,20.31
2022-09-28T13:15:04.895Z,20.32
2022-09-28T13:17:33.899Z,20.32
2022-09-28T13:20:18.658Z,20.32
2022-09-28T13:22:49.594Z,20.32
2022-09-28T13:25:19.043Z,20.33
2022-09-28T13:27:46.334Z,20.34
2022-09-28T13:30:13.267Z,20.33
2022-09-28T13:32:39.627Z,20.34
2022-09-28T13:35:06.289Z,20.34
2022-09-28T13:37:33.506Z,20.36
2022-09-28T13:40:05.724Z,20.37
2022-09-28T13:42:47.451Z,20.36
2022-09-28T13:45:22.638Z,20.37
2022-09-28T13:47:56.833Z,20.34
2022-09-28T13:51:01.590Z,20.36
2022-09-28T13:53:46.535Z,20.37
2022-09-28T13:56:28.189Z,20.37
2022-09-28T13:59:10.185Z,20.36
2022-09-28T14:01:37.676Z,20.37
2022-09-28T14:04:11.599Z,20.37
2022-09-28T14:06:37.949Z,20.35
2022-09-28T14:09:07.197Z,20.35
2022-09-28T14:11:36.751Z,20.35
2022-09-28T14:14:11.753Z,20.36
2022-09-28T14:16:38.398Z,20.35
2022-09-28T14:19:07.140Z,20.36
2022-09-28T14:21:51.986Z,20.36
2022-09-28T14:24:27.389Z,20.36
2022-09-28T14:27:12.591Z,20.36
2022-09-28T14:29:38.901Z,20.36
2022-09-28T14:32:05.766Z,20.35
2022-09-28T14:34:45.070Z,20.36
2022-09-28T14:37:49.273Z,20.35
2022-09-28T14:40:44.724Z,20.34
2022-09-28T14:43:20.654Z,20.34
2022-09-28T14:45:47.108Z,20.32
2022-09-28T14:48:14.182Z,20.34
2022-09-28T14:50:40.519Z,20.33
2022-09-28T14:53:10.237Z,20.33
2022-09-28T14:55:50.205Z,20.33
2022-09-28T14:58:27.446Z,20.34
2022-09-28T15:00:56.127Z,20.34
2022-09-28T15:03:22.452Z,20.33
2022-09-28T15:05:49.314Z,20.33
2022-09-28T15:08:17.316Z,20.33
2022-09-28T15:10:47.027Z,20.33
2022-09-28T15:13:25.944Z,20.33
2022-09-28T15:15:57.237Z,20.30
2022-09-28T15:18:43.810Z,20.31
2022-09-28T15:21:10.544Z,20.31
2022-09-28T15:23:37.558Z,20.31
2022-09-28T15:26:04.109Z,20.30
2022-09-28T15:28:30.674Z,20.27
2022-09-28T15:30:58.887Z,20.34
2022-09-28T15:33:48.549Z,20.34
2022-09-28T15:36:19.874Z,20.34
2022-09-28T15:38:47.933Z,20.35
2022-09-28T15:41:14.249Z,20.38
2022-09-28T15:43:41.399Z,20.37
2022-09-28T15:46:13.995Z,20.40
2022-09-28T15:48:53.345Z,20.40
2022-09-28T15:51:19.993Z,20.41
2022-09-28T15:53:47.497Z,20.40
2022-09-28T15:56:13.847Z,20.42
2022-09-28T15:58:40.177Z,20.41
2022-09-28T16:01:23.569Z,20.42
2022-09-28T16:03:49.893Z,20.43
2022-09-28T16:06:16.197Z,20.42
2022-09-28T16:08:43.058Z,20.44
2022-09-28T16:11:13.236Z,20.43
2022-09-28T16:13:52.856Z,20.44
2022-09-28T16:16:19.253Z,20.44
2022-09-28T16:18:48.394Z,20.44
2022-09-28T16:21:29.256Z,20.44
2022-09-28T16:23:58.517Z,20.45
2022-09-28T16:26:28.313Z,20.44
2022-09-28T16:28:54.621Z,20.44
2022-09-28T16:31:29.157Z,20.45
2022-09-28T16:34:14.485Z,20.45
2022-09-28T16:36:43.408Z,20.46
2022-09-28T16:39:11.633Z,20.44
2022-09-28T16:41:39.913Z,20.44
2022-09-28T16:44:09.198Z,20.43
2022-09-28T16:46:37.326Z,20.43
2022-09-28T16:49:05.698Z,20.45
2022-09-28T16:51:32.522Z,20.51
2022-09-28T16:54:37.782Z,20.56
2022-09-28T16:57:04.541Z,20.54
2022-09-28T16:59:30.911Z,20.51
2022-09-28T17:01:57.386Z,20.51
2022-09-28T17:04:24.136Z,20.78
2022-09-28T17:06:51.021Z,20.77
2022-09-28T17:09:17.537Z,20.77
2022-09-28T17:11:44.505Z,20.84
2022-09-28T17:14:11.667Z,20.85
2022-09-28T17:19:26.780Z,20.80
2022-09-28T17:21:53.201Z,20.71
2022-09-28T17:24:19.589Z,20.70
2022-09-28T17:26:46.455Z,20.81
2022-09-28T17:29:14.368Z,21.13
2022-09-28T17:31:41.546Z,20.93
2022-09-28T17:34:07.907Z,20.83
2022-09-28T17:36:34.209Z,20.78
2022-09-28T17:39:00.635Z,20.76
2022-09-28T17:41:26.961Z,20.74
2022-09-28T17:43:53.269Z,20.74
2022-09-28T17:46:40.462Z,20.67
2022-09-28T17:49:07.271Z,20.42
2022-09-28T17:51:34.727Z,20.46
2022-09-28T17:54:01.168Z,20.54
2022-09-28T17:56:31.884Z,20.66
2022-09-28T17:59:00.002Z,20.80
2022-09-28T18:01:30.064Z,21.09
2022-09-28T18:03:57.302Z,21.28
2022-09-28T18:06:23.742Z,21.27
2022-09-28T18:08:50.133Z,21.12
2022-09-28T18:11:17.351Z,20.87
2022-09-28T18:13:45.883Z,20.54
2022-09-28T18:16:12.886Z,20.48
2022-09-28T18:18:39.881Z,20.38
2022-09-28T18:21:06.706Z,20.58
2022-09-28T18:23:36.867Z,20.62
2022-09-28T18:26:03.257Z,20.32
2022-09-28T18:28:29.638Z,20.27
2022-09-28T18:30:56.007Z,20.52
2022-09-28T18:33:22.413Z,20.65
2022-09-28T18:35:54.887Z,20.70
2022-09-28T18:38:21.271Z,20.74
2022-09-28T18:40:48.275Z,20.74
2022-09-28T18:43:14.882Z,20.74
2022-09-28T18:45:41.213Z,20.74
2022-09-28T18:48:07.698Z,20.77
2022-09-28T18:50:35.122Z,20.78
2022-09-28T18:53:11.872Z,20.79
2022-09-28T18:55:39.791Z,20.77
2022-09-28T18:58:06.938Z,20.79
2022-09-28T19:00:33.379Z,20.78
2022-09-28T19:03:01.926Z,20.77
2022-09-28T19:05:28.354Z,20.77
2022-09-28T19:07:55.055Z,20.77
2022-09-28T19:10:21.362Z,20.77
2022-09-28T19:12:47.864Z,20.77
2022-09-28T19:15:14.433Z,20.76
2022-09-28T19:17:40.750Z,20.77
2022-09-28T19:20:07.146Z,20.76
2022-09-28T19:22:33.493Z,20.74
2022-09-28T19:24:59.812Z,20.73
2022-09-28T19:27:26.131Z,20.75
2022-09-28T19:29:52.459Z,20.75
2022-09-28T19:32:18.812Z,20.76
2022-09-28T19:34:45.149Z,20.73
2022-09-28T19:37:11.510Z,20.75
2022-09-28T19:39:37.814Z,20.75
2022-09-28T19:42:04.186Z,20.74
2022-09-28T19:44:30.891Z,20.73
2022-09-28T19:46:58.059Z,20.73
2022-09-28T19:49:24.668Z,20.72
2022-09-28T19:52:11.557Z,20.73
2022-09-28T19:54:38.677Z,20.68
2022-09-28T19:57:08.568Z,20.66
2022-09-28T19:59:36.426Z,20.71
2022-09-28T20:02:03.344Z,20.73
2022-09-28T20:04:29.939Z,20.74
2022-09-28T20:06:56.283Z,20.73
2022-09-28T20:09:22.598Z,20.73
2022-09-28T20:11:48.918Z,20.73
2022-09-28T20:14:16.058Z,20.71
2022-09-28T20:16:42.381Z,20.74
2022-09-28T20:19:08.705Z,20.74
2022-09-28T20:21:35.075Z,20.76
2022-09-28T20:24:01.715Z,20.76
2022-09-28T20:26:28.069Z,20.77
2022-09-28T20:28:54.381Z,20.77
2022-09-28T20:31:21.683Z,20.78
2022-09-28T20:33:48.081Z,20.79
2022-09-28T20:36:18.038Z,20.78
2022-09-28T20:38:44.850Z,20.79
2022-09-28T20:41:11.253Z,20.80
2022-09-28T20:43:37.823Z,20.78
2022-09-28T20:46:04.659Z,20.81
2022-09-28T20:48:31.045Z,20.80
2022-09-28T20:51:04.344Z,20.83
2022-09-28T20:53:31.022Z,20.82
2022-09-28T20:55:58.038Z,20.81
2022-09-28T20:58:24.361Z,20.80
2022-09-28T21:00:50.665Z,20.81
2022-09-28T21:03:17.970Z,20.83
2022-09-28T21:05:44.289Z,20.82
2022-09-28T21:08:10.602Z,20.82
2022-09-28T21:10:36.979Z,20.81
2022-09-28T21:13:03.350Z,20.81
2022-09-28T21:15:29.720Z,20.82
2022-09-28T21:17:56.086Z,20.82
2022-09-28T21:20:22.410Z,20.83
2022-09-28T21:22:48.729Z,20.82
2022-09-28T21:25:15.063Z,20.82
2022-09-28T21:27:41.438Z,20.83
2022-09-28T21:30:09.154Z,20.82
2022-09-28T21:32:35.529Z,20.80
2022-09-28T21:35:01.842Z,20.78
2022-09-28T21:37:28.166Z,20.80
2022-09-28T21:39:54.480Z,20.78
2022-09-28T21:42:20.805Z,20.76
2022-09-28T21:44:47.135Z,20.74
2022-09-28T21:47:13.479Z,20.74
2022-09-28T21:49:39.786Z,20.78
2022-09-28T21:52:06.100Z,20.77
2022-09-28T21:54:33.596Z,20.77
2022-09-28T21:57:01.327Z,20.77
2022-09-28T21:59:27.633Z,20.76
2022-09-28T22:01:54.013Z,20.75
2022-09-28T22:04:20.520Z,20.75
2022-09-28T22:06:47.035Z,20.75
2022-09-28T22:09:13.336Z,20.75
2022-09-28T22:11:39.780Z,20.74
2022-09-28T22:14:06.137Z,20.71
2022-09-28T22:16:32.765Z,20.72
2022-09-28T22:18:59.193Z,20.70
2022-09-28T22:21:28.628Z,20.69
2022-09-28T22:23:57.902Z,20.70
2022-09-28T22:26:24.778Z,20.68
2022-09-28T22:28:54.991Z,20.66
2022-09-28T22:31:22.320Z,20.66
2022-09-28T22:33:48.666Z,20.65
2022-09-28T22:36:16.585Z,20.64
2022-09-28T22:38:43.303Z,20.63
2022-09-28T22:41:09.627Z,20.64
2022-09-28T22:43:35.950Z,20.62
2022-09-28T22:46:03.399Z,20.62
2022-09-28T22:48:29.866Z,20.62
2022-09-28T22:50:56.212Z,20.60
2022-09-28T22:53:22.554Z,20.60
2022-09-28T22:55:48.870Z,20.60
2022-09-28T22:58:15.210Z,20.59
2022-09-28T23:00:41.553Z,20.57
2022-09-28T23:03:07.968Z,20.57
2022-09-28T23:05:34.359Z,20.57
2022-09-28T23:08:00.739Z,20.56
2022-09-28T23:10:27.155Z,20.55
2022-09-28T23:12:53.734Z,20.54
2022-09-28T23:15:21.578Z,20.53
2022-09-28T23:17:51.641Z,20.54
2022-09-28T23:20:18.034Z,20.53
2022-09-28T23:22:47.876Z,20.54
2022-09-28T23:25:14.520Z,20.53
2022-09-28T23:27:44.200Z,20.53
2022-09-28T23:30:10.532Z,20.51
2022-09-28T23:32:36.916Z,20.53
2022-09-28T23:35:03.263Z,20.51
2022-09-28T23:37:29.603Z,20.50
2022-09-28T23:39:55.951Z,20.49
2022-09-28T23:42:22.265Z,20.50
2022-09-28T23:44:48.569Z,20.50
2022-09-28T23:47:14.889Z,20.49
2022-09-28T23:49:41.193Z,20.48
2022-09-28T23:52:07.548Z,20.48
2022-09-28T23:54:33.889Z,20.47
2022-09-28T23:57:00.205Z,20.47
2022-09-28T23:59:26.505Z,20.46
